Time;durP1;ratioP1;P1;durP2;ratioP2;P2;SDS_P1;SDS_P2;PMS_P1;PMS_P2;Temp;Humidity;BMP_temperature;BMP_pressure;BME280_temperature;BME280_humidity;BME280_pressure;Samples;Min_cycle;Max_cycle;Signal;HPM_P1;HPM_P2
2022/07/08 00:02:03;;;;;;;5.57;1.38;;;16.40;59.10;;;;;;5053357;28;20053;-61
2022/07/08 00:04:29;;;;;;;5.40;1.30;;;16.40;59.10;;;;;;5052377;28;20167;-61
2022/07/08 00:06:54;;;;;;;4.75;1.38;;;16.40;59.10;;;;;;5052184;28;20120;-61
2022/07/08 00:09:21;;;;;;;4.90;1.00;;;16.40;59.20;;;;;;5052485;28;20047;-62
2022/07/08 00:11:46;;;;;;;4.85;1.35;;;16.30;59.30;;;;;;5052096;28;20044;-62
2022/07/08 00:14:13;;;;;;;6.03;1.67;;;16.30;59.30;;;;;;5047837;28;20045;-62
2022/07/08 00:16:43;;;;;;;6.15;1.42;;;16.30;59.50;;;;;;5061683;28;20145;-63
2022/07/08 00:19:14;;;;;;;5.72;1.30;;;16.30;59.50;;;;;;5053612;28;20041;-62
2022/07/08 00:21:44;;;;;;;5.40;1.60;;;16.30;59.60;;;;;;5053331;28;20025;-62
2022/07/08 00:24:14;;;;;;;4.72;1.45;;;16.30;59.70;;;;;;5050306;28;20172;-62
2022/07/08 00:26:40;;;;;;;4.38;1.52;;;16.30;59.70;;;;;;5052426;28;20118;-62
2022/07/08 00:29:07;;;;;;;5.85;1.42;;;16.20;59.80;;;;;;5053627;28;20476;-62
2022/07/08 00:31:33;;;;;;;5.35;1.42;;;16.20;59.90;;;;;;5052002;28;20124;-62
2022/07/08 00:33:59;;;;;;;4.57;1.55;;;16.20;60.00;;;;;;5040515;28;20124;-62
2022/07/08 00:41:36;;;;;;;5.75;1.25;;;16.10;60.20;;;;;;5328143;22;20119;-70
2022/07/08 00:44:02;;;;;;;7.10;1.70;;;16.10;60.40;;;;;;5031120;28;20050;-69
2022/07/08 00:46:28;;;;;;;4.40;1.48;;;16.10;60.40;;;;;;5033407;28;20044;-69
2022/07/08 00:48:53;;;;;;;3.58;1.30;;;16.10;60.50;;;;;;5032629;28;20041;-69
2022/07/08 00:51:19;;;;;;;5.70;1.30;;;16.10;60.60;;;;;;5015572;28;20037;-69
2022/07/08 00:53:49;;;;;;;3.40;1.23;;;16.10;60.60;;;;;;5032479;28;20048;-68
2022/07/08 00:56:15;;;;;;;6.10;1.33;;;16.10;60.60;;;;;;5015298;28;20092;-70
2022/07/08 00:58:41;;;;;;;4.93;1.23;;;16.00;60.60;;;;;;5015228;28;20049;-69
2022/07/08 01:01:07;;;;;;;8.82;2.25;;;16.00;60.60;;;;;;5015753;28;20077;-69
2022/07/08 01:03:33;;;;;;;5.75;1.40;;;16.00;60.70;;;;;;5014379;28;20130;-68
2022/07/08 01:05:59;;;;;;;6.03;1.40;;;16.00;60.70;;;;;;5015199;28;20069;-70
2022/07/08 01:08:25;;;;;;;8.70;1.88;;;16.00;60.70;;;;;;5015119;28;20080;-69
2022/07/08 01:10:51;;;;;;;5.50;1.20;;;16.00;60.70;;;;;;5013655;28;20030;-69
2022/07/08 01:13:18;;;;;;;5.43;1.20;;;16.00;60.70;;;;;;5014134;28;20046;-69
2022/07/08 01:15:45;;;;;;;6.15;1.50;;;16.00;60.70;;;;;;5015207;28;20129;-69
2022/07/08 01:18:28;;;;;;;8.85;1.38;;;16.00;61.20;;;;;;5014883;28;20026;-70
2022/07/08 01:20:55;;;;;;;4.57;1.38;;;16.00;60.70;;;;;;5016759;28;20036;-69
2022/07/08 01:23:21;;;;;;;9.40;1.40;;;15.90;60.70;;;;;;4998164;28;20121;-69
2022/07/08 01:25:47;;;;;;;7.63;1.33;;;15.90;60.80;;;;;;5015184;28;20037;-69
2022/07/08 01:28:14;;;;;;;5.10;1.10;;;15.90;60.80;;;;;;5032398;28;20127;-69
2022/07/08 01:30:40;;;;;;;7.03;1.40;;;15.90;60.80;;;;;;5014613;28;20369;-69
2022/07/08 01:33:06;;;;;;;4.45;1.10;;;15.90;60.80;;;;;;4997430;28;20041;-69
2022/07/08 01:35:32;;;;;;;4.68;1.38;;;15.90;60.80;;;;;;5015149;28;20516;-69
2022/07/08 01:37:57;;;;;;;6.03;1.30;;;15.90;60.90;;;;;;4998848;28;20056;-69
2022/07/08 01:40:23;;;;;;;8.63;1.73;;;15.90;60.90;;;;;;5031991;28;20041;-69
2022/07/08 01:42:49;;;;;;;4.78;1.45;;;15.90;61.00;;;;;;5014067;28;20049;-69
2022/07/08 01:45:14;;;;;;;5.07;1.50;;;15.90;61.10;;;;;;5017077;28;20057;-69
2022/07/08 01:47:40;;;;;;;7.45;1.45;;;15.80;61.00;;;;;;5018047;28;20396;-69
2022/07/08 01:50:06;;;;;;;4.35;1.45;;;15.80;61.10;;;;;;5017898;28;20049;-69
2022/07/08 01:52:32;;;;;;;7.10;1.65;;;15.80;61.10;;;;;;5001959;28;20487;-69
2022/07/08 01:54:57;;;;;;;5.63;1.25;;;15.80;61.10;;;;;;5018622;28;20044;-69
2022/07/08 01:57:23;;;;;;;7.50;1.65;;;15.80;61.10;;;;;;5036593;28;20525;-69
2022/07/08 01:59:50;;;;;;;4.53;1.20;;;15.80;61.00;;;;;;5016987;28;20178;-69
2022/07/08 02:02:19;;;;;;;4.65;1.30;;;15.80;61.00;;;;;;5017293;28;20381;-69
2022/07/08 02:04:45;;;;;;;6.05;1.90;;;15.70;60.90;;;;;;5011456;28;20116;-69
2022/07/08 02:07:11;;;;;;;5.22;1.30;;;15.70;60.90;;;;;;5018179;28;20112;-69
2022/07/08 02:09:38;;;;;;;6.57;1.30;;;15.70;60.80;;;;;;5018222;28;20044;-69
2022/07/08 02:12:20;;;;;;;5.70;1.58;;;15.70;60.80;;;;;;5018401;28;20041;-69
2022/07/08 02:14:46;;;;;;;3.85;1.58;;;15.70;60.80;;;;;;5018114;28;20107;-69
2022/07/08 02:17:13;;;;;;;5.55;1.35;;;15.60;60.60;;;;;;5017524;28;20037;-63
2022/07/08 02:19:38;;;;;;;9.35;1.58;;;15.60;60.60;;;;;;5018176;28;20116;-64
2022/07/08 02:22:04;;;;;;;2.72;1.20;;;15.60;60.60;;;;;;5002092;28;20037;-63
2022/07/08 02:24:30;;;;;;;7.07;1.40;;;15.60;60.60;;;;;;5017678;28;20498;-63
2022/07/08 02:26:56;;;;;;;5.90;1.50;;;15.60;60.60;;;;;;5000766;28;20117;-63
2022/07/08 02:29:22;;;;;;;5.80;1.58;;;15.50;60.60;;;;;;4985726;28;20052;-63
2022/07/08 02:31:47;;;;;;;5.20;1.40;;;15.50;60.60;;;;;;5035464;28;20120;-63
2022/07/08 02:34:13;;;;;;;5.82;1.85;;;15.40;60.60;;;;;;5017524;28;20100;-63
2022/07/08 02:36:39;;;;;;;3.80;1.20;;;15.40;61.00;;;;;;5032596;28;20046;-63
2022/07/08 02:39:04;;;;;;;4.88;1.33;;;15.30;60.50;;;;;;5008419;28;20041;-63
2022/07/08 02:41:30;;;;;;;6.57;1.38;;;15.30;60.60;;;;;;5017801;28;20481;-63
2022/07/08 02:43:56;;;;;;;5.68;1.35;;;15.30;60.70;;;;;;5034579;28;20053;-63
2022/07/08 02:46:22;;;;;;;6.55;1.52;;;15.20;60.60;;;;;;5000858;28;20388;-63
2022/07/08 02:48:48;;;;;;;9.73;2.08;;;15.20;60.70;;;;;;5035591;28;20033;-63
2022/07/08 02:51:13;;;;;;;5.28;1.23;;;15.10;60.70;;;;;;5001336;28;20045;-64
2022/07/08 02:53:40;;;;;;;8.15;1.90;;;15.10;60.80;;;;;;5034797;28;20041;-63
2022/07/08 02:56:06;;;;;;;6.40;1.80;;;15.10;60.90;;;;;;5016216;28;20122;-63
2022/07/08 02:58:31;;;;;;;3.13;1.02;;;15.10;61.50;;;;;;5017747;28;20095;-64
2022/07/08 03:00:57;;;;;;;4.05;1.20;;;15.00;61.10;;;;;;5017255;28;20050;-63
2022/07/08 03:03:23;;;;;;;5.45;1.65;;;15.00;61.10;;;;;;5016964;28;20041;-63
2022/07/08 03:05:49;;;;;;;6.20;1.98;;;15.00;61.20;;;;;;5016147;28;20447;-63
2022/07/08 03:08:14;;;;;;;5.22;1.30;;;15.00;61.40;;;;;;5017376;28;20048;-64
2022/07/08 03:10:40;;;;;;;6.50;1.58;;;14.90;61.50;;;;;;5000950;28;20052;-63
2022/07/08 03:13:06;;;;;;;4.88;1.48;;;14.90;61.60;;;;;;5034635;28;20103;-63
2022/07/08 03:15:31;;;;;;;3.58;1.30;;;14.90;61.60;;;;;;5014311;28;20048;-64
2022/07/08 03:17:57;;;;;;;4.60;1.70;;;14.80;61.70;;;;;;5034689;28;20431;-64
2022/07/08 03:20:23;;;;;;;5.60;1.50;;;14.80;61.80;;;;;;5034157;28;20037;-64
2022/07/08 03:22:48;;;;;;;5.68;1.35;;;14.80;61.90;;;;;;5016959;28;20045;-63
2022/07/08 03:25:14;;;;;;;5.05;1.42;;;14.80;62.00;;;;;;5015580;28;20046;-63
2022/07/08 03:27:40;;;;;;;5.43;1.40;;;14.70;62.00;;;;;;5017141;28;20117;-63
2022/07/08 03:30:07;;;;;;;5.47;1.30;;;14.70;62.00;;;;;;5000283;28;20080;-64
2022/07/08 03:32:32;;;;;;;4.72;1.30;;;14.70;62.20;;;;;;5015314;28;20048;-63
2022/07/08 03:34:58;;;;;;;5.38;1.83;;;14.60;62.20;;;;;;5000181;28;20037;-69
2022/07/08 03:37:25;;;;;;;5.68;1.60;;;14.60;62.30;;;;;;5017257;28;20164;-68
2022/07/08 03:39:53;;;;;;;8.48;1.52;;;14.60;62.30;;;;;;5034383;28;20042;-69
2022/07/08 03:42:19;;;;;;;2.22;1.20;;;14.60;62.40;;;;;;5015002;28;20080;-68
2022/07/08 03:44:46;;;;;;;5.10;1.63;;;14.60;62.50;;;;;;5015815;28;20056;-68
2022/07/08 03:47:12;;;;;;;5.30;1.40;;;14.50;62.60;;;;;;5016701;28;20049;-63
2022/07/08 03:49:38;;;;;;;6.40;1.40;;;14.50;62.60;;;;;;5016723;28;20385;-63
2022/07/08 03:52:04;;;;;;;7.88;1.67;;;14.50;62.80;;;;;;5033908;28;20047;-63
2022/07/08 03:54:30;;;;;;;8.48;1.70;;;14.50;62.90;;;;;;5015085;28;20053;-63
2022/07/08 03:56:56;;;;;;;4.38;1.65;;;14.40;62.90;;;;;;5015972;28;20053;-63
2022/07/08 03:59:22;;;;;;;8.45;1.58;;;14.40;63.00;;;;;;5033837;28;20492;-62
2022/07/08 04:01:48;;;;;;;4.90;1.23;;;14.40;63.10;;;;;;5016249;28;20041;-62
2022/07/08 04:04:13;;;;;;;5.72;1.83;;;14.40;63.30;;;;;;5014788;28;20542;-62
2022/07/08 04:06:39;;;;;;;5.10;1.70;;;14.40;63.40;;;;;;5015477;28;20080;-63
2022/07/08 04:09:05;;;;;;;5.75;1.52;;;14.40;63.50;;;;;;5016327;28;20041;-63
2022/07/08 04:11:30;;;;;;;6.47;1.90;;;14.30;63.50;;;;;;5015924;28;20172;-63
2022/07/08 04:13:56;;;;;;;5.45;1.70;;;14.30;63.60;;;;;;4997645;28;20072;-63
2022/07/08 04:16:23;;;;;;;8.60;1.83;;;14.30;63.70;;;;;;5016057;28;20049;-63
2022/07/08 04:18:49;;;;;;;7.60;2.03;;;14.30;63.90;;;;;;5033955;28;20044;-63
2022/07/08 04:21:14;;;;;;;4.35;1.50;;;14.30;64.00;;;;;;5015254;28;20412;-62
2022/07/08 04:23:41;;;;;;;4.85;1.33;;;14.30;64.20;;;;;;5014813;28;20037;-63
2022/07/08 04:26:06;;;;;;;7.15;1.80;;;14.30;64.30;;;;;;5015685;28;20499;-63
2022/07/08 04:28:33;;;;;;;5.65;2.05;;;14.30;64.50;;;;;;5015050;28;20055;-63
2022/07/08 04:30:59;;;;;;;7.05;1.70;;;14.30;64.70;;;;;;5015881;28;20111;-63
2022/07/08 04:33:25;;;;;;;6.70;1.75;;;14.30;64.90;;;;;;5032479;28;20069;-63
2022/07/08 04:35:51;;;;;;;5.15;1.52;;;14.30;65.50;;;;;;5015801;28;20424;-63
2022/07/08 04:38:17;;;;;;;7.00;2.13;;;14.30;65.10;;;;;;5015326;28;20103;-63
2022/07/08 04:40:42;;;;;;;9.77;2.10;;;14.30;65.20;;;;;;5015337;28;20392;-68
2022/07/08 04:43:09;;;;;;;5.03;1.48;;;14.30;65.30;;;;;;4994259;28;20038;-68
2022/07/08 04:45:35;;;;;;;8.02;1.77;;;14.30;65.40;;;;;;4992330;28;20077;-68
2022/07/08 04:48:00;;;;;;;6.20;1.90;;;14.30;65.50;;;;;;4991731;28;20040;-69
2022/07/08 04:50:26;;;;;;;6.97;2.25;;;14.40;65.70;;;;;;4992846;28;20038;-69
2022/07/08 04:52:52;;;;;;;6.95;1.85;;;14.40;65.90;;;;;;4992496;28;20088;-69
2022/07/08 04:55:27;;;;;;;7.72;1.95;;;14.40;66.20;;;;;;4993643;28;20078;-68
2022/07/08 04:58:02;;;;;;;6.68;1.95;;;14.40;66.40;;;;;;4990982;28;20049;-68
2022/07/08 05:00:28;;;;;;;;;;;14.50;66.70;;;;;;4977069;28;20046;-69
2022/07/08 05:02:54;;;;;;;5.47;1.48;;;14.50;66.30;;;;;;4991793;28;20305;-70
2022/07/08 05:05:20;;;;;;;4.97;1.98;;;14.50;66.80;;;;;;4992111;28;20128;-68
2022/07/08 05:07:47;;;;;;;9.60;1.80;;;14.60;67.20;;;;;;4991546;28;20046;-68
2022/07/08 05:10:15;;;;;;;8.48;2.03;;;14.60;67.40;;;;;;4992290;28;20050;-68
2022/07/08 05:12:41;;;;;;;9.23;2.17;;;14.70;67.80;;;;;;4975616;28;20077;-69
2022/07/08 05:15:07;;;;;;;8.15;1.88;;;14.80;68.00;;;;;;4993231;28;20070;-68
2022/07/08 05:17:32;;;;;;;6.65;1.75;;;14.80;68.10;;;;;;4975332;28;20039;-68
2022/07/08 05:19:58;;;;;;;6.85;2.03;;;14.90;68.30;;;;;;4991847;28;20042;-69
2022/07/08 05:22:23;;;;;;;7.25;1.98;;;14.90;68.30;;;;;;4992283;28;20049;-69
2022/07/08 05:24:49;;;;;;;7.18;2.03;;;15.00;68.50;;;;;;4991999;28;20563;-68
2022/07/08 05:27:15;;;;;;;6.75;2.00;;;15.10;68.50;;;;;;4974591;28;20038;-63
2022/07/08 05:29:40;;;;;;;7.03;1.98;;;15.10;68.50;;;;;;4988784;28;20074;-62
2022/07/08 05:32:06;;;;;;;7.25;1.65;;;15.20;68.60;;;;;;4991903;28;20081;-63
2022/07/08 05:34:32;;;;;;;8.38;2.17;;;15.30;68.70;;;;;;5018222;28;20133;-63
2022/07/08 05:36:58;;;;;;;5.50;1.75;;;15.30;68.60;;;;;;4992180;28;20050;-63
2022/07/08 05:39:24;;;;;;;6.88;1.83;;;15.30;68.60;;;;;;4967543;28;20137;-62
2022/07/08 05:41:51;;;;;;;11.23;2.00;;;15.40;68.60;;;;;;4969586;28;20050;-63
2022/07/08 05:44:17;;;;;;;7.85;1.77;;;15.50;68.60;;;;;;4991930;28;20051;-63
2022/07/08 05:46:43;;;;;;;8.55;2.20;;;15.50;68.60;;;;;;4990687;28;20050;-63
2022/07/08 05:49:09;;;;;;;8.80;2.40;;;15.60;68.90;;;;;;4985275;28;20113;-63
2022/07/08 05:51:35;;;;;;;10.20;1.92;;;15.70;69.50;;;;;;4992203;28;20145;-63
2022/07/08 05:54:00;;;;;;;7.85;1.98;;;15.90;69.90;;;;;;4990868;28;20473;-63
2022/07/08 05:56:26;;;;;;;7.13;1.85;;;16.30;69.60;;;;;;4991938;28;20050;-63
2022/07/08 05:58:52;;;;;;;8.02;1.92;;;16.60;68.70;;;;;;4975406;28;20101;-63
2022/07/08 06:01:17;;;;;;;7.32;1.80;;;16.90;67.80;;;;;;4993320;28;20070;-63
2022/07/08 06:03:43;;;;;;;5.40;1.83;;;17.20;67.00;;;;;;4991556;28;20042;-63
2022/07/08 06:06:09;;;;;;;6.80;2.10;;;17.40;66.50;;;;;;4975529;28;20043;-63
2022/07/08 06:08:35;;;;;;;9.57;2.00;;;17.60;65.90;;;;;;4991083;28;20441;-63
2022/07/08 06:11:01;;;;;;;9.18;1.60;;;17.70;65.40;;;;;;4992989;28;20053;-64
2022/07/08 06:13:27;;;;;;;9.63;1.85;;;17.80;65.00;;;;;;4992214;28;20113;-63
2022/07/08 06:15:53;;;;;;;9.98;1.80;;;17.90;64.70;;;;;;4991959;28;20046;-63
2022/07/08 06:18:19;;;;;;;6.03;1.40;;;18.00;64.70;;;;;;4992998;28;20100;-62
2022/07/08 06:20:45;;;;;;;7.65;1.50;;;18.10;64.60;;;;;;4991213;28;20065;-62
2022/07/08 06:23:11;;;;;;;8.93;1.90;;;18.10;64.40;;;;;;4991376;28;20046;-63
2022/07/08 06:25:38;;;;;;;7.28;1.38;;;18.20;64.40;;;;;;4991896;28;20389;-62
2022/07/08 06:28:04;;;;;;;7.30;1.88;;;18.20;64.40;;;;;;4991542;28;20038;-63
2022/07/08 06:30:29;;;;;;;6.85;1.55;;;18.20;64.20;;;;;;4992441;28;20080;-62
2022/07/08 06:32:55;;;;;;;9.27;2.25;;;18.30;64.20;;;;;;4996172;28;20093;-63
2022/07/08 06:35:21;;;;;;;5.82;1.58;;;18.30;64.20;;;;;;4995654;28;20125;-63
2022/07/08 06:37:47;;;;;;;8.70;1.83;;;18.40;64.10;;;;;;4994888;28;20038;-62
2022/07/08 06:40:13;;;;;;;14.07;1.98;;;18.40;63.90;;;;;;4994931;28;20078;-62
2022/07/08 06:42:39;;;;;;;6.40;1.45;;;18.40;63.70;;;;;;4994834;28;20065;-62
2022/07/08 06:45:05;;;;;;;10.20;2.00;;;18.40;63.50;;;;;;5010860;28;20082;-62
2022/07/08 06:47:31;;;;;;;4.97;1.42;;;18.50;63.70;;;;;;4995043;28;20078;-62
2022/07/08 06:49:56;;;;;;;8.05;2.03;;;18.50;63.40;;;;;;4994695;28;20070;-62
2022/07/08 06:52:22;;;;;;;7.55;1.92;;;18.60;63.30;;;;;;4995253;28;20097;-62
2022/07/08 06:54:48;;;;;;;9.55;1.92;;;18.60;63.80;;;;;;4995711;28;20185;-63
2022/07/08 06:57:15;;;;;;;8.63;2.10;;;18.70;62.80;;;;;;4994295;28;20045;-63
2022/07/08 06:59:41;;;;;;;5.13;1.75;;;18.70;63.00;;;;;;4994636;28;20085;-63
2022/07/08 07:02:08;;;;;;;9.68;1.98;;;18.80;62.90;;;;;;4994656;28;20108;-63
2022/07/08 07:04:34;;;;;;;9.10;1.67;;;18.80;62.70;;;;;;4989039;28;20046;-63
2022/07/08 07:07:00;;;;;;;8.52;1.85;;;18.80;63.00;;;;;;4993831;28;20049;-63
2022/07/08 07:09:25;;;;;;;9.25;2.10;;;18.90;62.50;;;;;;5020149;28;20053;-63
2022/07/08 07:11:52;;;;;;;9.07;2.83;;;19.00;62.60;;;;;;4978142;28;20145;-63
2022/07/08 07:14:18;;;;;;;9.73;2.38;;;19.00;62.70;;;;;;4992719;28;20125;-63
2022/07/08 07:16:44;;;;;;;9.20;2.00;;;19.00;62.60;;;;;;4995766;28;20442;-63
2022/07/08 07:19:11;;;;;;;10.40;2.38;;;19.10;62.60;;;;;;5009920;28;20046;-63
2022/07/08 07:21:37;;;;;;;5.40;1.90;;;19.20;62.40;;;;;;4994151;28;20120;-63
2022/07/08 07:24:02;;;;;;;4.07;1.15;;;19.20;62.40;;;;;;4993862;28;20074;-64
2022/07/08 07:26:28;;;;;;;8.15;1.63;;;19.30;62.10;;;;;;4994288;28;20047;-64
2022/07/08 07:28:54;;;;;;;8.20;1.92;;;19.40;62.00;;;;;;4994295;28;20057;-64
2022/07/08 07:31:20;;;;;;;7.32;1.70;;;19.50;61.90;;;;;;4994006;28;20371;-63
2022/07/08 07:33:46;;;;;;;5.25;1.95;;;19.50;61.80;;;;;;4994624;28;20050;-61
2022/07/08 07:36:11;;;;;;;9.00;1.73;;;19.60;61.60;;;;;;4995210;28;20092;-63
2022/07/08 07:38:37;;;;;;;6.57;1.60;;;19.70;61.30;;;;;;4994034;28;20046;-63
2022/07/08 07:41:03;;;;;;;10.35;2.13;;;19.80;61.00;;;;;;4994786;28;20038;-63
2022/07/08 07:43:28;;;;;;;5.28;1.38;;;19.80;60.80;;;;;;4993327;28;20050;-62
2022/07/08 07:45:54;;;;;;;4.85;1.48;;;19.80;60.70;;;;;;4977481;28;20157;-63
2022/07/08 07:48:20;;;;;;;6.60;2.25;;;19.90;60.70;;;;;;4993334;28;20034;-63
2022/07/08 07:50:45;;;;;;;7.50;1.50;;;19.90;60.80;;;;;;4992444;28;20121;-63
2022/07/08 07:53:12;;;;;;;6.53;1.50;;;19.90;60.80;;;;;;4993263;28;20445;-63
2022/07/08 07:55:37;;;;;;;7.05;2.20;;;20.00;60.60;;;;;;4991537;28;20050;-67
2022/07/08 07:58:04;;;;;;;6.15;1.55;;;20.00;60.30;;;;;;4993186;28;20035;-68
2022/07/08 08:00:29;;;;;;;8.18;1.80;;;20.00;60.00;;;;;;4994627;28;20074;-68
2022/07/08 08:02:55;;;;;;;7.80;1.90;;;20.10;60.00;;;;;;4993379;28;20085;-68
2022/07/08 08:05:21;;;;;;;7.47;2.08;;;20.10;59.80;;;;;;4993270;28;20375;-68
2022/07/08 08:07:46;;;;;;;5.28;1.75;;;20.10;59.70;;;;;;4993635;28;20035;-68
2022/07/08 08:10:13;;;;;;;7.45;2.25;;;20.10;59.90;;;;;;4992547;28;20034;-69
2022/07/08 08:12:39;;;;;;;7.88;1.95;;;20.10;59.90;;;;;;4994577;28;20042;-69
2022/07/08 08:15:06;;;;;;;7.97;1.63;;;20.20;59.90;;;;;;4993246;28;20473;-69
2022/07/08 08:17:36;;;;;;;6.70;1.90;;;20.10;59.90;;;;;;4977178;28;20378;-69
2022/07/08 08:20:03;;;;;;;6.45;1.40;;;20.20;59.80;;;;;;4993038;28;20070;-69
2022/07/08 08:22:29;;;;;;;9.60;2.15;;;20.20;59.90;;;;;;4994664;28;20046;-69
2022/07/08 08:24:55;;;;;;;7.25;1.90;;;20.20;60.00;;;;;;4994053;28;20494;-69
2022/07/08 08:27:20;;;;;;;8.38;2.00;;;20.20;60.30;;;;;;4993287;28;20117;-69
2022/07/08 08:29:46;;;;;;;5.55;1.83;;;20.20;60.50;;;;;;4994179;28;20043;-68
2022/07/08 08:32:12;;;;;;;6.68;1.65;;;20.30;60.40;;;;;;4993908;28;20035;-68
2022/07/08 08:34:37;;;;;;;5.68;1.70;;;20.30;60.20;;;;;;4992929;28;20052;-67
2022/07/08 08:37:03;;;;;;;9.38;1.58;;;20.30;59.70;;;;;;4993077;28;20042;-69
2022/07/08 08:39:29;;;;;;;8.30;2.00;;;20.40;59.70;;;;;;4992869;28;20104;-68
2022/07/08 08:41:55;;;;;;;7.10;1.50;;;20.40;59.80;;;;;;5007074;28;20054;-70
2022/07/08 08:44:20;;;;;;;11.00;2.10;;;20.40;59.70;;;;;;5015550;28;20124;-69
2022/07/08 08:46:48;;;;;;;5.97;1.83;;;20.40;59.70;;;;;;5015557;28;20144;-69
2022/07/08 08:49:16;;;;;;;6.57;1.65;;;20.50;59.50;;;;;;5015704;28;20504;-69
2022/07/08 08:51:44;;;;;;;6.30;1.65;;;20.50;59.10;;;;;;5013791;28;20042;-69
2022/07/08 08:54:13;;;;;;;7.60;2.28;;;20.50;58.90;;;;;;5014041;28;20102;-70
2022/07/08 08:56:39;;;;;;;3.95;1.20;;;20.60;58.60;;;;;;5031674;28;20044;-69
2022/07/08 08:59:05;;;;;;;5.32;1.20;;;20.50;58.30;;;;;;5015175;28;20072;-70
2022/07/08 09:01:32;;;;;;;4.47;1.33;;;20.60;58.50;;;;;;4987346;28;20096;-69
2022/07/08 09:03:59;;;;;;;4.10;1.25;;;20.60;58.40;;;;;;5019405;28;20042;-69
2022/07/08 09:06:25;;;;;;;6.43;1.80;;;20.60;58.50;;;;;;5011315;28;20045;-69
2022/07/08 09:08:50;;;;;;;6.47;1.35;;;20.70;58.60;;;;;;4994094;28;20404;-69
2022/07/08 09:11:17;;;;;;;8.55;1.70;;;20.80;58.60;;;;;;5009502;28;20033;-69
2022/07/08 09:13:43;;;;;;;8.90;1.67;;;20.80;58.60;;;;;;5028766;28;20033;-69
2022/07/08 09:16:09;;;;;;;6.97;1.70;;;20.90;58.60;;;;;;5014103;28;20121;-69
2022/07/08 09:18:38;;;;;;;5.40;1.63;;;20.90;58.70;;;;;;5014702;28;20086;-69
2022/07/08 09:21:04;;;;;;;3.58;1.40;;;21.00;58.50;;;;;;5015163;28;20412;-69
2022/07/08 09:23:37;;;;;;;5.10;1.48;;;21.00;58.50;;;;;;5012970;28;20034;-69
2022/07/08 09:26:10;;;;;;;3.97;1.13;;;21.00;58.10;;;;;;5016110;28;20041;-68
2022/07/08 09:28:44;;;;;;;6.78;1.60;;;21.10;57.80;;;;;;5031806;28;20069;-69
2022/07/08 09:31:15;;;;;;;3.75;1.23;;;21.10;57.60;;;;;;5014386;28;20037;-69
2022/07/08 09:33:41;;;;;;;5.90;1.30;;;21.10;57.60;;;;;;4999155;28;20412;-64
2022/07/08 09:36:08;;;;;;;6.28;1.50;;;21.10;57.60;;;;;;5013328;28;20049;-64
2022/07/08 09:38:37;;;;;;;8.98;1.90;;;21.20;57.60;;;;;;5013895;28;20399;-64
2022/07/08 09:41:04;;;;;;;6.85;2.22;;;21.20;57.30;;;;;;5031243;28;20133;-64
2022/07/08 09:43:31;;;;;;;7.30;1.83;;;21.30;57.50;;;;;;5022667;28;20053;-64
2022/07/08 09:46:07;;;;;;;6.13;1.42;;;21.30;57.60;;;;;;5030557;28;20389;-64
2022/07/08 09:48:33;;;;;;;6.75;1.70;;;21.40;57.50;;;;;;4999144;28;20052;-62
2022/07/08 09:51:00;;;;;;;4.90;1.58;;;21.40;57.50;;;;;;5014231;28;20038;-62
2022/07/08 09:53:27;;;;;;;4.70;1.70;;;21.50;57.80;;;;;;4997404;28;20065;-64
2022/07/08 09:55:55;;;;;;;7.55;1.77;;;21.50;57.10;;;;;;5014507;28;20045;-64
2022/07/08 09:58:27;;;;;;;3.92;1.33;;;21.50;56.90;;;;;;5014463;28;20120;-64
2022/07/08 10:00:54;;;;;;;4.50;1.70;;;21.60;56.90;;;;;;5016553;28;20616;-64
2022/07/08 10:03:21;;;;;;;3.72;1.48;;;21.60;56.70;;;;;;5015918;28;20073;-64
2022/07/08 10:05:48;;;;;;;8.63;1.90;;;21.70;56.90;;;;;;5033717;28;20060;-64
2022/07/08 10:08:18;;;;;;;13.57;2.33;;;21.70;57.00;;;;;;5001539;28;20041;-65
2022/07/08 10:10:45;;;;;;;8.80;2.47;;;21.80;57.20;;;;;;5018591;28;20120;-69
2022/07/08 10:13:13;;;;;;;6.60;1.98;;;21.90;57.30;;;;;;5018270;28;20424;-69
2022/07/08 10:15:39;;;;;;;5.80;1.55;;;21.90;57.20;;;;;;5018256;28;20480;-69
2022/07/08 10:18:35;;;;;;;7.18;2.13;;;22.00;57.10;;;;;;5017743;28;20041;-69
2022/07/08 10:21:04;;;;;;;8.88;2.70;;;22.00;57.10;;;;;;5001946;28;20420;-69
2022/07/08 10:23:42;;;;;;;5.25;1.73;;;22.00;57.20;;;;;;5017145;28;20111;-69
2022/07/08 10:26:10;;;;;;;7.85;2.17;;;22.10;57.20;;;;;;5011778;28;20048;-68
2022/07/08 10:28:41;;;;;;;7.38;2.20;;;22.10;57.30;;;;;;5001183;28;20045;-68
2022/07/08 10:31:23;;;;;;;5.93;1.90;;;22.20;57.60;;;;;;5019131;28;20033;-69
2022/07/08 10:33:49;;;;;;;6.43;2.28;;;22.20;57.00;;;;;;5017690;28;20056;-68
2022/07/08 10:36:20;;;;;;;7.53;2.13;;;22.20;56.90;;;;;;5018014;28;20049;-68
2022/07/08 10:38:45;;;;;;;6.75;2.13;;;22.20;56.70;;;;;;5022224;28;20088;-68
2022/07/08 10:41:13;;;;;;;8.30;2.63;;;22.20;56.80;;;;;;5009933;28;20073;-68
2022/07/08 10:44:02;;;;;;;7.78;2.45;;;22.20;56.60;;;;;;4993271;28;20050;-70
2022/07/08 10:46:28;;;;;;;6.25;2.28;;;22.20;56.40;;;;;;5009106;28;20042;-69
2022/07/08 10:48:55;;;;;;;5.50;1.65;;;22.20;56.60;;;;;;5027146;28;20124;-69
2022/07/08 10:51:29;;;;;;;6.80;1.92;;;22.20;56.90;;;;;;4993814;28;20040;-63
2022/07/08 10:54:00;;;;;;;6.47;1.80;;;22.20;56.30;;;;;;4992377;28;20053;-63
2022/07/08 10:56:49;;;;;;;7.43;1.90;;;22.20;56.20;;;;;;5007710;28;20091;-68
2022/07/08 10:59:17;;;;;;;7.20;1.95;;;22.20;56.50;;;;;;5027143;28;20045;-69
2022/07/08 11:01:57;;;;;;;4.10;1.65;;;22.10;56.50;;;;;;5027481;28;20524;-69
2022/07/08 11:04:34;;;;;;;9.50;2.40;;;22.20;56.70;;;;;;5008246;28;20060;-69
2022/07/08 11:07:20;;;;;;;8.98;1.77;;;22.20;56.10;;;;;;5025315;28;20137;-69
2022/07/08 11:10:04;;;;;;;5.90;2.15;;;22.20;56.20;;;;;;5025504;28;20041;-69
2022/07/08 11:12:35;;;;;;;5.97;1.90;;;22.20;56.40;;;;;;5007489;28;20060;-69
2022/07/08 11:15:05;;;;;;;7.15;2.00;;;22.30;56.80;;;;;;5026564;28;20451;-69
2022/07/08 11:17:36;;;;;;;6.20;1.70;;;22.40;56.60;;;;;;5008489;28;20160;-69
2022/07/08 11:20:16;;;;;;;4.50;1.85;;;22.50;56.80;;;;;;4992854;28;20041;-69
2022/07/08 11:22:44;;;;;;;6.30;2.13;;;22.50;56.30;;;;;;5009269;28;20053;-69
2022/07/08 11:25:16;;;;;;;7.00;1.90;;;22.60;56.30;;;;;;5008585;28;20037;-69
2022/07/08 11:27:43;;;;;;;4.55;2.00;;;22.60;56.10;;;;;;5026840;28;20084;-69
2022/07/08 11:30:11;;;;;;;6.75;2.17;;;22.70;56.00;;;;;;5025869;28;20116;-70
2022/07/08 11:32:37;;;;;;;6.28;1.83;;;22.70;55.80;;;;;;5009164;28;20501;-69
2022/07/08 11:35:04;;;;;;;5.45;1.92;;;22.80;55.30;;;;;;5008245;28;20048;-69
2022/07/08 11:37:32;;;;;;;5.07;1.90;;;22.80;55.20;;;;;;5008135;28;20049;-69
2022/07/08 11:39:59;;;;;;;6.30;2.38;;;22.90;55.10;;;;;;4991041;28;20076;-70
2022/07/08 11:42:25;;;;;;;6.15;2.28;;;23.10;54.90;;;;;;5026394;28;20064;-68
2022/07/08 11:44:51;;;;;;;6.28;2.38;;;22.90;54.30;;;;;;5008224;28;20413;-69
2022/07/08 11:47:19;;;;;;;4.63;2.00;;;23.00;54.10;;;;;;5025914;28;20048;-67
2022/07/08 11:49:45;;;;;;;6.45;1.80;;;23.00;54.00;;;;;;5025693;28;20038;-68
2022/07/08 11:52:14;;;;;;;8.70;2.67;;;23.00;53.90;;;;;;5008562;28;20057;-69
2022/07/08 11:54:39;;;;;;;5.07;1.50;;;23.00;53.90;;;;;;5008502;28;21269;-68
2022/07/08 11:57:06;;;;;;;4.57;1.08;;;23.00;53.40;;;;;;5007914;28;20056;-69
2022/07/08 11:59:34;;;;;;;4.57;1.50;;;22.90;53.60;;;;;;4991910;28;20128;-68
2022/07/08 12:02:01;;;;;;;4.32;1.33;;;23.00;53.60;;;;;;5008652;28;20077;-68
2022/07/08 12:04:27;;;;;;;5.05;1.30;;;23.00;53.60;;;;;;5007060;28;20047;-69
2022/07/08 12:06:58;;;;;;;4.30;1.35;;;23.00;53.90;;;;;;5025662;28;20728;-69
2022/07/08 12:09:25;;;;;;;4.50;1.42;;;23.00;53.80;;;;;;4990715;28;20547;-68
2022/07/08 12:11:56;;;;;;;3.85;1.63;;;23.10;53.90;;;;;;5025468;28;20041;-69
2022/07/08 12:14:23;;;;;;;6.95;1.55;;;23.10;53.70;;;;;;5007426;28;20386;-69
2022/07/08 12:16:55;;;;;;;5.93;2.00;;;23.10;53.60;;;;;;5008576;28;20041;-70
2022/07/08 12:19:35;;;;;;;6.85;1.75;;;23.10;53.50;;;;;;5007211;28;20063;-69
2022/07/08 12:22:08;;;;;;;5.45;1.65;;;23.10;53.10;;;;;;5024929;28;20069;-69
2022/07/08 12:24:41;;;;;;;2.85;1.30;;;23.10;53.70;;;;;;5025215;28;20048;-69
2022/07/08 12:27:09;;;;;;;5.85;1.80;;;23.20;54.30;;;;;;5007551;28;20045;-69
2022/07/08 12:29:36;;;;;;;7.05;1.80;;;23.20;54.60;;;;;;5006985;28;20049;-68
2022/07/08 12:32:03;;;;;;;6.97;2.05;;;23.30;54.50;;;;;;5025445;28;20056;-68
2022/07/08 12:34:29;;;;;;;8.35;2.42;;;23.40;54.60;;;;;;5007968;28;20076;-69
2022/07/08 12:37:16;;;;;;;6.75;2.30;;;23.40;54.60;;;;;;5025238;28;20484;-69
2022/07/08 12:39:42;;;;;;;5.93;2.20;;;23.50;54.90;;;;;;5006307;28;20061;-69
2022/07/08 12:42:08;;;;;;;7.45;2.50;;;23.50;55.40;;;;;;5024471;28;20098;-69
2022/07/08 12:44:34;;;;;;;10.07;2.78;;;23.60;55.60;;;;;;5007226;28;20060;-69
2022/07/08 12:47:01;;;;;;;6.13;2.50;;;23.60;55.40;;;;;;5007868;28;20057;-69
2022/07/08 12:49:29;;;;;;;8.90;2.72;;;23.70;55.50;;;;;;5007533;28;20073;-70
2022/07/08 12:51:56;;;;;;;7.28;2.50;;;23.80;55.90;;;;;;5006792;28;20045;-72
2022/07/08 12:54:25;;;;;;;7.20;2.60;;;23.90;56.00;;;;;;5007099;28;20057;-71